sensor_id;sensor_type;location;lat;lon;timestamp;temperature;humidity
47773;DHT22;33534;51.028;13.716;2022-07-26T00:01:24;23.40;68.60
47773;DHT22;33534;51.028;13.716;2022-07-26T00:03:50;23.30;68.50
47773;DHT22;33534;51.028;13.716;2022-07-26T00:06:16;23.40;68.10
47773;DHT22;33534;51.028;13.716;2022-07-26T00:08:42;23.30;67.80
47773;DHT22;33534;51.028;13.716;2022-07-26T00:11:08;23.30;68.10
47773;DHT22;33534;51.028;13.716;2022-07-26T00:13:34;23.20;68.30
47773;DHT22;33534;51.028;13.716;2022-07-26T00:16:00;23.20;68.50
47773;DHT22;33534;51.028;13.716;2022-07-26T00:18:26;23.20;68.40
47773;DHT22;33534;51.028;13.716;2022-07-26T00:20:52;23.30;68.40
47773;DHT22;33534;51.028;13.716;2022-07-26T00:23:18;23.10;68.70
47773;DHT22;33534;51.028;13.716;2022-07-26T00:25:44;23.10;68.70
47773;DHT22;33534;51.028;13.716;2022-07-26T00:28:10;23.10;68.70
47773;DHT22;33534;51.028;13.716;2022-07-26T00:30:36;23.20;68.60
47773;DHT22;33534;51.028;13.716;2022-07-26T00:33:01;23.10;68.40
47773;DHT22;33534;51.028;13.716;2022-07-26T00:35:27;23.20;68.40
47773;DHT22;33534;51.028;13.716;2022-07-26T00:37:53;23.20;68.30
47773;DHT22;33534;51.028;13.716;2022-07-26T00:40:18;23.20;67.90
47773;DHT22;33534;51.028;13.716;2022-07-26T00:42:44;23.20;67.80
47773;DHT22;33534;51.028;13.716;2022-07-26T00:45:10;23.20;67.90
47773;DHT22;33534;51.028;13.716;2022-07-26T00:47:37;23.20;67.90
47773;DHT22;33534;51.028;13.716;2022-07-26T00:50:05;23.10;68.00
47773;DHT22;33534;51.028;13.716;2022-07-26T00:52:31;23.00;68.00
47773;DHT22;33534;51.028;13.716;2022-07-26T00:54:57;23.00;67.80
47773;DHT22;33534;51.028;13.716;2022-07-26T00:57:23;23.10;67.60
47773;DHT22;33534;51.028;13.716;2022-07-26T00:59:49;23.10;67.50
47773;DHT22;33534;51.028;13.716;2022-07-26T01:02:15;23.10;67.30
47773;DHT22;33534;51.028;13.716;2022-07-26T01:04:42;23.10;67.20
47773;DHT22;33534;51.028;13.716;2022-07-26T01:07:09;23.10;67.00
47773;DHT22;33534;51.028;13.716;2022-07-26T01:09:36;23.10;67.00
47773;DHT22;33534;51.028;13.716;2022-07-26T01:12:02;23.10;66.50
47773;DHT22;33534;51.028;13.716;2022-07-26T01:14:28;23.10;66.40
47773;DHT22;33534;51.028;13.716;2022-07-26T01:16:54;23.00;66.30
47773;DHT22;33534;51.028;13.716;2022-07-26T01:19:20;23.00;66.40
47773;DHT22;33534;51.028;13.716;2022-07-26T01:21:46;23.00;67.00
47773;DHT22;33534;51.028;13.716;2022-07-26T01:24:12;23.00;67.20
47773;DHT22;33534;51.028;13.716;2022-07-26T01:26:37;23.00;68.10
47773;DHT22;33534;51.028;13.716;2022-07-26T01:29:04;22.90;67.80
47773;DHT22;33534;51.028;13.716;2022-07-26T01:31:29;22.90;68.30
47773;DHT22;33534;51.028;13.716;2022-07-26T01:33:56;22.80;69.10
47773;DHT22;33534;51.028;13.716;2022-07-26T01:36:22;22.80;69.90
47773;DHT22;33534;51.028;13.716;2022-07-26T01:38:48;22.70;72.10
47773;DHT22;33534;51.028;13.716;2022-07-26T01:41:13;22.60;74.50
47773;DHT22;33534;51.028;13.716;2022-07-26T01:43:39;22.50;74.20
47773;DHT22;33534;51.028;13.716;2022-07-26T01:46:06;22.40;75.90
47773;DHT22;33534;51.028;13.716;2022-07-26T01:48:33;22.40;73.60
47773;DHT22;33534;51.028;13.716;2022-07-26T01:50:59;22.20;74.20
47773;DHT22;33534;51.028;13.716;2022-07-26T01:53:24;22.20;73.50
47773;DHT22;33534;51.028;13.716;2022-07-26T01:55:50;22.40;73.90
47773;DHT22;33534;51.028;13.716;2022-07-26T01:58:16;22.30;73.50
47773;DHT22;33534;51.028;13.716;2022-07-26T02:00:42;22.30;73.70
47773;DHT22;33534;51.028;13.716;2022-07-26T02:03:08;22.30;72.80
47773;DHT22;33534;51.028;13.716;2022-07-26T02:05:33;22.20;72.80
47773;DHT22;33534;51.028;13.716;2022-07-26T02:07:59;22.20;72.70
47773;DHT22;33534;51.028;13.716;2022-07-26T02:10:25;22.20;72.00
47773;DHT22;33534;51.028;13.716;2022-07-26T02:13:12;22.20;72.10
47773;DHT22;33534;51.028;13.716;2022-07-26T02:15:38;22.20;71.90
47773;DHT22;33534;51.028;13.716;2022-07-26T02:18:03;22.20;72.40
47773;DHT22;33534;51.028;13.716;2022-07-26T02:20:29;22.20;71.60
47773;DHT22;33534;51.028;13.716;2022-07-26T02:23:00;22.20;71.10
47773;DHT22;33534;51.028;13.716;2022-07-26T02:25:26;22.20;71.10
47773;DHT22;33534;51.028;13.716;2022-07-26T02:27:52;22.10;71.20
47773;DHT22;33534;51.028;13.716;2022-07-26T02:30:18;22.10;70.80
47773;DHT22;33534;51.028;13.716;2022-07-26T02:32:44;22.10;70.50
47773;DHT22;33534;51.028;13.716;2022-07-26T02:35:10;22.00;70.20
47773;DHT22;33534;51.028;13.716;2022-07-26T02:37:36;22.00;70.40
47773;DHT22;33534;51.028;13.716;2022-07-26T02:40:02;22.00;70.50
47773;DHT22;33534;51.028;13.716;2022-07-26T02:42:28;22.00;70.00
47773;DHT22;33534;51.028;13.716;2022-07-26T02:44:54;22.00;70.00
47773;DHT22;33534;51.028;13.716;2022-07-26T02:47:20;21.90;70.20
47773;DHT22;33534;51.028;13.716;2022-07-26T02:49:45;21.90;69.90
47773;DHT22;33534;51.028;13.716;2022-07-26T02:52:11;21.80;70.20
47773;DHT22;33534;51.028;13.716;2022-07-26T02:54:36;21.80;69.90
47773;DHT22;33534;51.028;13.716;2022-07-26T02:57:02;21.80;70.00
47773;DHT22;33534;51.028;13.716;2022-07-26T02:59:28;22.00;69.60
47773;DHT22;33534;51.028;13.716;2022-07-26T03:01:53;22.00;69.60
47773;DHT22;33534;51.028;13.716;2022-07-26T03:04:19;22.00;69.30
47773;DHT22;33534;51.028;13.716;2022-07-26T03:06:45;22.00;69.00
47773;DHT22;33534;51.028;13.716;2022-07-26T03:09:10;22.00;68.90
47773;DHT22;33534;51.028;13.716;2022-07-26T03:11:36;22.00;68.80
47773;DHT22;33534;51.028;13.716;2022-07-26T03:14:01;22.00;68.90
47773;DHT22;33534;51.028;13.716;2022-07-26T03:16:27;22.00;68.70
47773;DHT22;33534;51.028;13.716;2022-07-26T03:18:53;22.00;68.70
47773;DHT22;33534;51.028;13.716;2022-07-26T03:21:18;22.00;68.30
47773;DHT22;33534;51.028;13.716;2022-07-26T03:23:44;21.90;68.50
47773;DHT22;33534;51.028;13.716;2022-07-26T03:26:10;22.00;68.60
47773;DHT22;33534;51.028;13.716;2022-07-26T03:28:35;22.10;68.10
47773;DHT22;33534;51.028;13.716;2022-07-26T03:31:01;22.00;67.90
47773;DHT22;33534;51.028;13.716;2022-07-26T03:33:28;22.00;67.90
47773;DHT22;33534;51.028;13.716;2022-07-26T03:35:54;22.00;67.90
47773;DHT22;33534;51.028;13.716;2022-07-26T03:38:19;22.00;67.90
47773;DHT22;33534;51.028;13.716;2022-07-26T03:40:45;22.00;67.80
47773;DHT22;33534;51.028;13.716;2022-07-26T03:43:10;21.90;67.70
47773;DHT22;33534;51.028;13.716;2022-07-26T03:45:36;21.90;67.50
47773;DHT22;33534;51.028;13.716;2022-07-26T03:48:02;22.00;67.30
47773;DHT22;33534;51.028;13.716;2022-07-26T03:50:27;22.00;67.50
47773;DHT22;33534;51.028;13.716;2022-07-26T03:52:53;22.00;67.40
47773;DHT22;33534;51.028;13.716;2022-07-26T03:55:18;22.00;67.10
47773;DHT22;33534;51.028;13.716;2022-07-26T03:58:03;21.90;67.30
47773;DHT22;33534;51.028;13.716;2022-07-26T04:00:28;21.80;67.50
47773;DHT22;33534;51.028;13.716;2022-07-26T04:02:54;21.80;67.90
47773;DHT22;33534;51.028;13.716;2022-07-26T04:05:20;21.80;67.80
47773;DHT22;33534;51.028;13.716;2022-07-26T04:07:46;21.70;68.10
47773;DHT22;33534;51.028;13.716;2022-07-26T04:10:12;21.60;68.30
47773;DHT22;33534;51.028;13.716;2022-07-26T04:12:40;21.60;68.50
47773;DHT22;33534;51.028;13.716;2022-07-26T04:15:06;21.70;68.30
47773;DHT22;33534;51.028;13.716;2022-07-26T04:17:41;21.60;68.50
47773;DHT22;33534;51.028;13.716;2022-07-26T04:20:08;21.60;68.50
47773;DHT22;33534;51.028;13.716;2022-07-26T04:22:35;21.70;68.60
47773;DHT22;33534;51.028;13.716;2022-07-26T04:25:02;21.80;68.10
47773;DHT22;33534;51.028;13.716;2022-07-26T04:27:29;21.90;68.00
47773;DHT22;33534;51.028;13.716;2022-07-26T04:29:54;21.90;68.00
47773;DHT22;33534;51.028;13.716;2022-07-26T04:32:20;22.00;67.50
47773;DHT22;33534;51.028;13.716;2022-07-26T04:34:45;22.00;67.40
47773;DHT22;33534;51.028;13.716;2022-07-26T04:37:11;22.00;67.50
47773;DHT22;33534;51.028;13.716;2022-07-26T04:39:37;22.10;67.20
47773;DHT22;33534;51.028;13.716;2022-07-26T04:42:02;22.10;67.10
47773;DHT22;33534;51.028;13.716;2022-07-26T04:44:28;22.10;67.10
47773;DHT22;33534;51.028;13.716;2022-07-26T04:46:53;22.20;67.10
47773;DHT22;33534;51.028;13.716;2022-07-26T04:49:19;22.30;66.80
47773;DHT22;33534;51.028;13.716;2022-07-26T04:51:45;22.40;66.80
47773;DHT22;33534;51.028;13.716;2022-07-26T04:54:10;22.40;66.60
47773;DHT22;33534;51.028;13.716;2022-07-26T04:56:36;22.50;66.70
47773;DHT22;33534;51.028;13.716;2022-07-26T04:59:01;22.50;66.40
47773;DHT22;33534;51.028;13.716;2022-07-26T05:01:27;22.60;66.10
47773;DHT22;33534;51.028;13.716;2022-07-26T05:03:53;22.70;65.70
47773;DHT22;33534;51.028;13.716;2022-07-26T05:06:18;22.90;65.40
47773;DHT22;33534;51.028;13.716;2022-07-26T05:08:44;22.90;65.50
47773;DHT22;33534;51.028;13.716;2022-07-26T05:11:10;22.90;65.50
47773;DHT22;33534;51.028;13.716;2022-07-26T05:13:35;23.00;65.30
47773;DHT22;33534;51.028;13.716;2022-07-26T05:16:01;23.10;65.10
47773;DHT22;33534;51.028;13.716;2022-07-26T05:18:27;23.20;64.90
47773;DHT22;33534;51.028;13.716;2022-07-26T05:20:54;23.20;64.90
47773;DHT22;33534;51.028;13.716;2022-07-26T05:23:20;23.30;64.40
47773;DHT22;33534;51.028;13.716;2022-07-26T05:25:46;23.40;64.40
47773;DHT22;33534;51.028;13.716;2022-07-26T05:28:11;23.40;64.20
47773;DHT22;33534;51.028;13.716;2022-07-26T05:30:37;23.50;64.30
47773;DHT22;33534;51.028;13.716;2022-07-26T05:33:03;23.70;63.50
47773;DHT22;33534;51.028;13.716;2022-07-26T05:35:29;23.80;63.50
47773;DHT22;33534;51.028;13.716;2022-07-26T05:37:54;23.80;63.30
47773;DHT22;33534;51.028;13.716;2022-07-26T05:40:21;23.90;62.90
47773;DHT22;33534;51.028;13.716;2022-07-26T05:42:47;24.00;62.70
47773;DHT22;33534;51.028;13.716;2022-07-26T05:45:30;24.10;62.50
47773;DHT22;33534;51.028;13.716;2022-07-26T05:47:56;24.30;62.20
47773;DHT22;33534;51.028;13.716;2022-07-26T05:50:22;24.30;62.10
47773;DHT22;33534;51.028;13.716;2022-07-26T05:52:48;24.20;62.00
47773;DHT22;33534;51.028;13.716;2022-07-26T05:55:13;24.30;61.70
47773;DHT22;33534;51.028;13.716;2022-07-26T05:57:39;24.10;61.90
47773;DHT22;33534;51.028;13.716;2022-07-26T06:00:08;24.00;61.60
47773;DHT22;33534;51.028;13.716;2022-07-26T06:02:33;24.10;61.10
47773;DHT22;33534;51.028;13.716;2022-07-26T06:04:59;24.00;61.20
47773;DHT22;33534;51.028;13.716;2022-07-26T06:07:28;24.20;60.80
47773;DHT22;33534;51.028;13.716;2022-07-26T06:09:53;24.30;59.60
47773;DHT22;33534;51.028;13.716;2022-07-26T06:12:19;24.50;58.80
47773;DHT22;33534;51.028;13.716;2022-07-26T06:14:44;24.60;57.90
47773;DHT22;33534;51.028;13.716;2022-07-26T06:17:10;24.80;56.60
47773;DHT22;33534;51.028;13.716;2022-07-26T06:19:36;24.70;56.60
47773;DHT22;33534;51.028;13.716;2022-07-26T06:22:02;24.60;56.10
47773;DHT22;33534;51.028;13.716;2022-07-26T06:24:28;24.80;55.70
47773;DHT22;33534;51.028;13.716;2022-07-26T06:26:54;24.80;54.30
47773;DHT22;33534;51.028;13.716;2022-07-26T06:29:21;25.00;53.90
47773;DHT22;33534;51.028;13.716;2022-07-26T06:31:47;25.00;53.60
47773;DHT22;33534;51.028;13.716;2022-07-26T06:34:13;24.90;53.80
47773;DHT22;33534;51.028;13.716;2022-07-26T06:36:39;25.00;53.40
47773;DHT22;33534;51.028;13.716;2022-07-26T06:39:05;25.10;52.70
47773;DHT22;33534;51.028;13.716;2022-07-26T06:41:31;25.40;51.50
47773;DHT22;33534;51.028;13.716;2022-07-26T06:43:56;25.50;50.80
47773;DHT22;33534;51.028;13.716;2022-07-26T06:46:22;25.50;50.80
47773;DHT22;33534;51.028;13.716;2022-07-26T06:48:48;25.90;49.90
47773;DHT22;33534;51.028;13.716;2022-07-26T06:51:14;26.30;49.10
47773;DHT22;33534;51.028;13.716;2022-07-26T06:53:40;26.60;47.30
47773;DHT22;33534;51.028;13.716;2022-07-26T06:56:06;26.90;46.20
47773;DHT22;33534;51.028;13.716;2022-07-26T06:58:32;27.00;45.80
47773;DHT22;33534;51.028;13.716;2022-07-26T07:00:58;27.10;44.60
47773;DHT22;33534;51.028;13.716;2022-07-26T07:03:24;27.50;44.30
47773;DHT22;33534;51.028;13.716;2022-07-26T07:05:49;27.70;42.60
47773;DHT22;33534;51.028;13.716;2022-07-26T07:08:15;28.00;42.60
47773;DHT22;33534;51.028;13.716;2022-07-26T07:10:41;28.10;42.50
47773;DHT22;33534;51.028;13.716;2022-07-26T07:13:07;28.30;41.90
47773;DHT22;33534;51.028;13.716;2022-07-26T07:15:32;28.30;41.10
47773;DHT22;33534;51.028;13.716;2022-07-26T07:17:58;28.40;40.50
47773;DHT22;33534;51.028;13.716;2022-07-26T07:20:24;28.60;40.60
47773;DHT22;33534;51.028;13.716;2022-07-26T07:22:50;29.20;39.40
47773;DHT22;33534;51.028;13.716;2022-07-26T07:25:16;29.30;37.80
47773;DHT22;33534;51.028;13.716;2022-07-26T07:27:42;29.70;37.80
47773;DHT22;33534;51.028;13.716;2022-07-26T07:30:08;29.90;37.00
47773;DHT22;33534;51.028;13.716;2022-07-26T07:32:35;30.30;36.20
47773;DHT22;33534;51.028;13.716;2022-07-26T07:37:27;31.00;34.40
47773;DHT22;33534;51.028;13.716;2022-07-26T07:39:52;31.30;33.50
47773;DHT22;33534;51.028;13.716;2022-07-26T07:42:18;31.30;33.50
47773;DHT22;33534;51.028;13.716;2022-07-26T07:44:44;31.50;33.40
47773;DHT22;33534;51.028;13.716;2022-07-26T07:47:10;31.30;33.60
47773;DHT22;33534;51.028;13.716;2022-07-26T07:49:37;31.20;33.30
47773;DHT22;33534;51.028;13.716;2022-07-26T07:52:02;30.90;33.30
47773;DHT22;33534;51.028;13.716;2022-07-26T07:54:28;30.40;34.50
47773;DHT22;33534;51.028;13.716;2022-07-26T07:56:54;30.10;34.80
47773;DHT22;33534;51.028;13.716;2022-07-26T07:59:21;29.80;35.20
47773;DHT22;33534;51.028;13.716;2022-07-26T08:01:47;29.50;35.80
47773;DHT22;33534;51.028;13.716;2022-07-26T08:04:13;29.50;35.50
47773;DHT22;33534;51.028;13.716;2022-07-26T08:06:39;29.60;35.70
47773;DHT22;33534;51.028;13.716;2022-07-26T08:09:04;29.30;36.60
47773;DHT22;33534;51.028;13.716;2022-07-26T08:11:30;29.20;36.60
47773;DHT22;33534;51.028;13.716;2022-07-26T08:13:56;28.90;36.80
47773;DHT22;33534;51.028;13.716;2022-07-26T08:16:21;28.90;36.60
47773;DHT22;33534;51.028;13.716;2022-07-26T08:18:47;28.60;37.10
47773;DHT22;33534;51.028;13.716;2022-07-26T08:21:13;28.90;36.80
47773;DHT22;33534;51.028;13.716;2022-07-26T08:23:38;29.00;36.70
47773;DHT22;33534;51.028;13.716;2022-07-26T08:26:04;28.90;36.90
47773;DHT22;33534;51.028;13.716;2022-07-26T08:28:30;29.10;36.10
47773;DHT22;33534;51.028;13.716;2022-07-26T08:30:55;28.80;36.60
47773;DHT22;33534;51.028;13.716;2022-07-26T08:33:21;28.40;37.20
47773;DHT22;33534;51.028;13.716;2022-07-26T08:35:47;27.70;37.80
47773;DHT22;33534;51.028;13.716;2022-07-26T08:38:13;27.20;39.10
47773;DHT22;33534;51.028;13.716;2022-07-26T08:40:39;26.90;40.00
47773;DHT22;33534;51.028;13.716;2022-07-26T08:43:04;27.00;40.00
47773;DHT22;33534;51.028;13.716;2022-07-26T08:45:30;27.30;40.00
47773;DHT22;33534;51.028;13.716;2022-07-26T08:47:57;27.70;39.30
47773;DHT22;33534;51.028;13.716;2022-07-26T08:50:24;27.40;39.90
47773;DHT22;33534;51.028;13.716;2022-07-26T08:52:51;27.30;40.80
47773;DHT22;33534;51.028;13.716;2022-07-26T08:55:18;27.40;40.90
47773;DHT22;33534;51.028;13.716;2022-07-26T08:57:45;27.20;40.80
47773;DHT22;33534;51.028;13.716;2022-07-26T09:00:21;27.30;41.10
47773;DHT22;33534;51.028;13.716;2022-07-26T09:02:47;27.30;41.20
47773;DHT22;33534;51.028;13.716;2022-07-26T09:05:14;27.00;41.30
47773;DHT22;33534;51.028;13.716;2022-07-26T09:07:40;27.10;41.00
47773;DHT22;33534;51.028;13.716;2022-07-26T09:10:10;27.40;40.90
47773;DHT22;33534;51.028;13.716;2022-07-26T09:12:36;27.50;40.40
47773;DHT22;33534;51.028;13.716;2022-07-26T09:15:05;27.50;40.70
47773;DHT22;33534;51.028;13.716;2022-07-26T09:17:41;27.90;40.60
47773;DHT22;33534;51.028;13.716;2022-07-26T09:22:36;30.20;36.60
47773;DHT22;33534;51.028;13.716;2022-07-26T09:25:02;31.00;34.60
47773;DHT22;33534;51.028;13.716;2022-07-26T09:27:34;31.20;33.90
47773;DHT22;33534;51.028;13.716;2022-07-26T09:30:07;31.90;32.90
47773;DHT22;33534;51.028;13.716;2022-07-26T09:32:33;32.70;31.90
47773;DHT22;33534;51.028;13.716;2022-07-26T09:35:14;33.60;30.30
47773;DHT22;33534;51.028;13.716;2022-07-26T09:37:46;34.10;28.80
47773;DHT22;33534;51.028;13.716;2022-07-26T09:40:15;34.40;28.00
47773;DHT22;33534;51.028;13.716;2022-07-26T09:43:04;34.80;27.10
47773;DHT22;33534;51.028;13.716;2022-07-26T09:45:32;34.60;27.30
47773;DHT22;33534;51.028;13.716;2022-07-26T09:47:58;34.00;28.50
47773;DHT22;33534;51.028;13.716;2022-07-26T09:50:27;33.50;28.50
47773;DHT22;33534;51.028;13.716;2022-07-26T09:53:04;33.50;29.20
47773;DHT22;33534;51.028;13.716;2022-07-26T09:55:35;33.60;28.40
47773;DHT22;33534;51.028;13.716;2022-07-26T09:58:01;34.10;27.90
47773;DHT22;33534;51.028;13.716;2022-07-26T10:00:32;34.20;27.50
47773;DHT22;33534;51.028;13.716;2022-07-26T10:02:57;33.90;27.50
47773;DHT22;33534;51.028;13.716;2022-07-26T10:05:23;34.10;26.90
47773;DHT22;33534;51.028;13.716;2022-07-26T10:07:50;34.20;26.40
47773;DHT22;33534;51.028;13.716;2022-07-26T10:10:41;34.40;26.20
47773;DHT22;33534;51.028;13.716;2022-07-26T10:13:07;34.60;26.00
47773;DHT22;33534;51.028;13.716;2022-07-26T10:15:41;34.00;26.30
47773;DHT22;33534;51.028;13.716;2022-07-26T10:18:09;33.60;27.10
47773;DHT22;33534;51.028;13.716;2022-07-26T10:23:04;33.20;27.80
47773;DHT22;33534;51.028;13.716;2022-07-26T10:25:49;32.50;28.60
47773;DHT22;33534;51.028;13.716;2022-07-26T10:28:29;32.00;29.10
47773;DHT22;33534;51.028;13.716;2022-07-26T10:31:30;31.90;29.60
47773;DHT22;33534;51.028;13.716;2022-07-26T10:33:57;31.30;30.40
47773;DHT22;33534;51.028;13.716;2022-07-26T10:36:27;30.80;30.30
47773;DHT22;33534;51.028;13.716;2022-07-26T10:41:46;29.90;30.90
47773;DHT22;33534;51.028;13.716;2022-07-26T10:44:21;30.00;31.00
47773;DHT22;33534;51.028;13.716;2022-07-26T10:49:51;30.50;30.60
47773;DHT22;33534;51.028;13.716;2022-07-26T10:57:39;31.00;29.10
47773;DHT22;33534;51.028;13.716;2022-07-26T11:00:13;30.90;29.70
47773;DHT22;33534;51.028;13.716;2022-07-26T11:02:40;30.90;29.60
47773;DHT22;33534;51.028;13.716;2022-07-26T11:05:15;30.80;29.90
47773;DHT22;33534;51.028;13.716;2022-07-26T11:07:57;30.90;30.50
47773;DHT22;33534;51.028;13.716;2022-07-26T11:10:29;30.70;30.70
47773;DHT22;33534;51.028;13.716;2022-07-26T11:15:38;30.20;31.80
47773;DHT22;33534;51.028;13.716;2022-07-26T11:20:35;29.90;30.80
47773;DHT22;33534;51.028;13.716;2022-07-26T11:23:00;30.10;30.70
47773;DHT22;33534;51.028;13.716;2022-07-26T11:25:26;30.10;31.50
47773;DHT22;33534;51.028;13.716;2022-07-26T11:28:04;29.70;30.70
47773;DHT22;33534;51.028;13.716;2022-07-26T11:30:30;29.50;29.60
47773;DHT22;33534;51.028;13.716;2022-07-26T11:32:56;29.60;29.50
47773;DHT22;33534;51.028;13.716;2022-07-26T11:35:26;29.90;30.40
47773;DHT22;33534;51.028;13.716;2022-07-26T11:37:56;30.30;30.40
47773;DHT22;33534;51.028;13.716;2022-07-26T11:40:44;30.60;29.40
47773;DHT22;33534;51.028;13.716;2022-07-26T11:43:11;30.20;30.70
47773;DHT22;33534;51.028;13.716;2022-07-26T11:45:36;30.10;30.50
47773;DHT22;33534;51.028;13.716;2022-07-26T11:48:04;29.70;31.00
47773;DHT22;33534;51.028;13.716;2022-07-26T11:52:56;29.00;32.40
47773;DHT22;33534;51.028;13.716;2022-07-26T11:55:26;29.00;32.80
47773;DHT22;33534;51.028;13.716;2022-07-26T11:57:52;29.00;32.80
47773;DHT22;33534;51.028;13.716;2022-07-26T12:00:18;29.00;32.40
47773;DHT22;33534;51.028;13.716;2022-07-26T12:02:44;29.00;32.80
47773;DHT22;33534;51.028;13.716;2022-07-26T12:05:18;28.90;33.30
47773;DHT22;33534;51.028;13.716;2022-07-26T12:08:00;28.90;33.40
47773;DHT22;33534;51.028;13.716;2022-07-26T12:10:27;29.20;33.50
47773;DHT22;33534;51.028;13.716;2022-07-26T12:15:46;29.70;31.30
47773;DHT22;33534;51.028;13.716;2022-07-26T12:18:27;29.70;31.30
47773;DHT22;33534;51.028;13.716;2022-07-26T12:23:22;29.40;32.00
47773;DHT22;33534;51.028;13.716;2022-07-26T12:25:48;29.00;33.00
47773;DHT22;33534;51.028;13.716;2022-07-26T12:28:13;28.80;33.30
47773;DHT22;33534;51.028;13.716;2022-07-26T12:30:39;28.60;33.10
47773;DHT22;33534;51.028;13.716;2022-07-26T12:33:05;28.60;33.00
47773;DHT22;33534;51.028;13.716;2022-07-26T12:35:32;28.60;33.20
47773;DHT22;33534;51.028;13.716;2022-07-26T12:38:00;28.60;32.50
47773;DHT22;33534;51.028;13.716;2022-07-26T12:40:27;28.50;32.20
47773;DHT22;33534;51.028;13.716;2022-07-26T12:42:56;28.40;32.30
47773;DHT22;33534;51.028;13.716;2022-07-26T12:45:28;28.40;31.90
47773;DHT22;33534;51.028;13.716;2022-07-26T12:47:55;28.50;32.20
47773;DHT22;33534;51.028;13.716;2022-07-26T12:50:24;28.50;31.30
47773;DHT22;33534;51.028;13.716;2022-07-26T12:52:50;28.60;31.70
47773;DHT22;33534;51.028;13.716;2022-07-26T12:55:18;28.50;31.50
47773;DHT22;33534;51.028;13.716;2022-07-26T12:57:47;28.50;31.50
47773;DHT22;33534;51.028;13.716;2022-07-26T13:00:14;28.40;31.40
47773;DHT22;33534;51.028;13.716;2022-07-26T13:02:41;28.50;31.10
47773;DHT22;33534;51.028;13.716;2022-07-26T13:05:08;28.70;30.60
47773;DHT22;33534;51.028;13.716;2022-07-26T13:07:34;28.90;31.30
47773;DHT22;33534;51.028;13.716;2022-07-26T13:10:00;29.20;30.80
47773;DHT22;33534;51.028;13.716;2022-07-26T13:12:26;29.50;30.70
47773;DHT22;33534;51.028;13.716;2022-07-26T13:14:51;29.70;30.50
47773;DHT22;33534;51.028;13.716;2022-07-26T13:17:17;29.90;30.20
47773;DHT22;33534;51.028;13.716;2022-07-26T13:19:43;29.80;30.40
47773;DHT22;33534;51.028;13.716;2022-07-26T13:22:08;29.70;31.00
47773;DHT22;33534;51.028;13.716;2022-07-26T13:24:35;29.50;31.30
47773;DHT22;33534;51.028;13.716;2022-07-26T13:27:03;29.80;31.00
47773;DHT22;33534;51.028;13.716;2022-07-26T13:29:29;29.70;31.20
47773;DHT22;33534;51.028;13.716;2022-07-26T13:31:56;29.80;31.20
47773;DHT22;33534;51.028;13.716;2022-07-26T13:34:22;29.70;31.30
47773;DHT22;33534;51.028;13.716;2022-07-26T13:36:49;29.60;30.70
47773;DHT22;33534;51.028;13.716;2022-07-26T13:39:15;29.50;30.80
47773;DHT22;33534;51.028;13.716;2022-07-26T13:41:41;29.40;31.30
47773;DHT22;33534;51.028;13.716;2022-07-26T13:44:06;29.20;32.10
47773;DHT22;33534;51.028;13.716;2022-07-26T13:46:32;29.30;32.30
47773;DHT22;33534;51.028;13.716;2022-07-26T13:48:59;29.50;32.30
47773;DHT22;33534;51.028;13.716;2022-07-26T13:51:28;29.60;32.30
47773;DHT22;33534;51.028;13.716;2022-07-26T13:54:14;29.70;32.50
47773;DHT22;33534;51.028;13.716;2022-07-26T13:56:40;29.20;33.50
47773;DHT22;33534;51.028;13.716;2022-07-26T13:59:07;29.10;33.70
47773;DHT22;33534;51.028;13.716;2022-07-26T14:01:32;28.50;34.70
47773;DHT22;33534;51.028;13.716;2022-07-26T14:03:58;28.30;35.50
47773;DHT22;33534;51.028;13.716;2022-07-26T14:06:24;28.10;36.10
47773;DHT22;33534;51.028;13.716;2022-07-26T14:08:52;28.30;36.30
47773;DHT22;33534;51.028;13.716;2022-07-26T14:11:18;28.50;35.90
47773;DHT22;33534;51.028;13.716;2022-07-26T14:13:44;28.60;34.40
47773;DHT22;33534;51.028;13.716;2022-07-26T14:16:09;28.50;35.30
47773;DHT22;33534;51.028;13.716;2022-07-26T14:18:35;28.60;34.30
47773;DHT22;33534;51.028;13.716;2022-07-26T14:21:01;28.50;34.80
47773;DHT22;33534;51.028;13.716;2022-07-26T14:23:28;28.50;35.20
47773;DHT22;33534;51.028;13.716;2022-07-26T14:25:54;28.60;34.20
47773;DHT22;33534;51.028;13.716;2022-07-26T14:28:19;28.90;34.50
47773;DHT22;33534;51.028;13.716;2022-07-26T14:30:45;29.00;33.40
47773;DHT22;33534;51.028;13.716;2022-07-26T14:33:10;29.10;33.20
47773;DHT22;33534;51.028;13.716;2022-07-26T14:35:36;29.30;33.20
47773;DHT22;33534;51.028;13.716;2022-07-26T14:38:02;29.20;32.50
47773;DHT22;33534;51.028;13.716;2022-07-26T14:40:27;29.10;32.70
47773;DHT22;33534;51.028;13.716;2022-07-26T14:42:53;29.00;33.00
47773;DHT22;33534;51.028;13.716;2022-07-26T14:45:19;29.10;33.30
47773;DHT22;33534;51.028;13.716;2022-07-26T14:47:44;28.90;33.30
47773;DHT22;33534;51.028;13.716;2022-07-26T14:50:12;28.80;33.80
47773;DHT22;33534;51.028;13.716;2022-07-26T14:52:47;28.90;34.10
47773;DHT22;33534;51.028;13.716;2022-07-26T14:55:13;28.70;34.20
47773;DHT22;33534;51.028;13.716;2022-07-26T14:57:40;28.60;34.30
47773;DHT22;33534;51.028;13.716;2022-07-26T15:00:08;28.70;34.60
47773;DHT22;33534;51.028;13.716;2022-07-26T15:02:37;28.60;34.80
47773;DHT22;33534;51.028;13.716;2022-07-26T15:05:03;28.40;35.50
47773;DHT22;33534;51.028;13.716;2022-07-26T15:07:29;28.40;35.40
47773;DHT22;33534;51.028;13.716;2022-07-26T15:09:55;28.40;35.80
47773;DHT22;33534;51.028;13.716;2022-07-26T15:12:20;28.40;35.60
47773;DHT22;33534;51.028;13.716;2022-07-26T15:14:46;28.30;35.80
47773;DHT22;33534;51.028;13.716;2022-07-26T15:17:12;28.10;36.30
47773;DHT22;33534;51.028;13.716;2022-07-26T15:19:38;28.20;36.50
47773;DHT22;33534;51.028;13.716;2022-07-26T15:22:04;28.10;36.00
47773;DHT22;33534;51.028;13.716;2022-07-26T15:24:30;28.10;36.30
47773;DHT22;33534;51.028;13.716;2022-07-26T15:26:55;28.10;36.40
47773;DHT22;33534;51.028;13.716;2022-07-26T15:29:21;28.10;36.60
47773;DHT22;33534;51.028;13.716;2022-07-26T15:31:47;28.20;36.60
47773;DHT22;33534;51.028;13.716;2022-07-26T15:34:13;28.10;36.60
47773;DHT22;33534;51.028;13.716;2022-07-26T15:36:39;28.10;36.80
47773;DHT22;33534;51.028;13.716;2022-07-26T15:39:05;28.20;36.70
47773;DHT22;33534;51.028;13.716;2022-07-26T15:41:32;28.20;37.10
47773;DHT22;33534;51.028;13.716;2022-07-26T15:43:58;28.20;37.10
47773;DHT22;33534;51.028;13.716;2022-07-26T15:46:24;28.10;37.80